Time;durP1;ratioP1;P1;durP2;ratioP2;P2;SDS_P1;SDS_P2;PMS_P1;PMS_P2;Temp;Humidity;BMP_temperature;BMP_pressure;BME280_temperature;BME280_humidity;BME280_pressure;Samples;Min_cycle;Max_cycle;Signal;HPM_P1;HPM_P2
2024/01/14 00:00:06;;;;;;;0.10;0.10;;;;;;;;;;5046969;28;20141;-81
2024/01/14 00:02:33;;;;;;;0.28;0.28;;;;;;;;;;5032462;28;20088;-81
2024/01/14 00:04:59;;;;;;;0.10;0.10;;;;;;;;;;5031133;28;20053;-81
2024/01/14 00:07:26;;;;;;;0.15;0.15;;;;;;;;;;5056376;28;20056;-81
2024/01/14 00:09:55;;;;;;;0.10;0.10;;;;;;;;;;5049285;28;20050;-81
2024/01/14 00:12:22;;;;;;;0.28;0.28;;;;;;;;;;5038707;28;20081;-82
2024/01/14 00:14:48;;;;;;;0.10;0.10;;;;;;;;;;5049059;28;20058;-82
2024/01/14 00:17:15;;;;;;;0.10;0.10;;;;;;;;;;5041850;28;20120;-82
2024/01/14 00:19:41;;;;;;;0.10;0.10;;;;;;;;;;5047845;28;20811;-81
2024/01/14 00:22:08;;;;;;;0.10;0.10;;;;;;;;;;5041148;28;20128;-82
2024/01/14 00:24:35;;;;;;;0.10;0.10;;;;;;;;;;5053463;28;20038;-81
2024/01/14 00:27:02;;;;;;;0.10;0.10;;;;;;;;;;5052741;28;20089;-82
2024/01/14 00:29:28;;;;;;;0.10;0.10;;;;;;;;;;5053651;28;20064;-82
2024/01/14 00:31:56;;;;;;;0.10;0.10;;;;;;;;;;5031245;28;20093;-82
2024/01/14 00:34:23;;;;;;;0.10;0.10;;;;;;;;;;5030518;28;20105;-82
2024/01/14 00:36:49;;;;;;;0.10;0.10;;;;;;;;;;5039817;28;20104;-82
2024/01/14 00:39:16;;;;;;;0.10;0.10;;;;;;;;;;5047286;28;20050;-82
2024/01/14 00:41:43;;;;;;;0.20;0.20;;;;;;;;;;5042712;28;20136;-81
2024/01/14 00:44:09;;;;;;;0.10;0.10;;;;;;;;;;5034221;28;20041;-81
2024/01/14 00:46:36;;;;;;;2.55;1.70;;;;;;;;;;5053855;28;20061;-81
2024/01/14 00:49:02;;;;;;;0.20;0.20;;;;;;;;;;5024898;28;20127;-81
2024/01/14 00:51:29;;;;;;;0.10;0.10;;;;;;;;;;5042379;28;20038;-81
2024/01/14 00:53:56;;;;;;;0.20;0.20;;;;;;;;;;5053472;28;20500;-82
2024/01/14 00:56:24;;;;;;;0.57;0.57;;;;;;;;;;5036148;28;20589;-83
2024/01/14 00:58:51;;;;;;;0.47;0.47;;;;;;;;;;5051433;28;20528;-82
2024/01/14 01:01:18;;;;;;;0.10;0.10;;;;;;;;;;5033349;28;20530;-83
2024/01/14 01:03:44;;;;;;;0.10;0.10;;;;;;;;;;5049865;28;20291;-82
2024/01/14 01:06:11;;;;;;;0.10;0.10;;;;;;;;;;5034599;28;20108;-82
2024/01/14 01:08:37;;;;;;;0.57;0.57;;;;;;;;;;5049544;28;20137;-83
2024/01/14 01:11:05;;;;;;;0.10;0.10;;;;;;;;;;5025628;28;20053;-82
2024/01/14 01:13:32;;;;;;;0.28;0.28;;;;;;;;;;5036348;28;20044;-82
2024/01/14 01:15:58;;;;;;;0.20;0.20;;;;;;;;;;5036757;28;20105;-82
2024/01/14 01:18:25;;;;;;;0.20;0.20;;;;;;;;;;5036573;28;21311;-83
2024/01/14 01:20:51;;;;;;;0.10;0.10;;;;;;;;;;5041919;28;20132;-82
2024/01/14 01:23:18;;;;;;;0.20;0.20;;;;;;;;;;5027355;28;20033;-82
2024/01/14 01:25:44;;;;;;;0.20;0.20;;;;;;;;;;5024761;28;20069;-81
2024/01/14 01:28:11;;;;;;;0.17;0.17;;;;;;;;;;5033446;28;20974;-81
2024/01/14 01:30:38;;;;;;;0.80;0.80;;;;;;;;;;5034602;28;20046;-81
2024/01/14 01:33:07;;;;;;;0.10;0.10;;;;;;;;;;5052732;28;20053;-80
2024/01/14 01:35:34;;;;;;;0.30;0.30;;;;;;;;;;5023695;28;20053;-81
2024/01/14 01:38:00;;;;;;;0.10;0.10;;;;;;;;;;5028791;28;20100;-81
2024/01/14 01:40:27;;;;;;;0.10;0.10;;;;;;;;;;5038134;28;20052;-81
2024/01/14 01:42:53;;;;;;;0.10;0.10;;;;;;;;;;5039820;28;20061;-81
2024/01/14 01:45:19;;;;;;;0.10;0.10;;;;;;;;;;5049062;28;20041;-81
2024/01/14 01:47:46;;;;;;;0.10;0.10;;;;;;;;;;5048662;28;20749;-81
2024/01/14 01:50:12;;;;;;;0.10;0.10;;;;;;;;;;5056301;28;20054;-81
2024/01/14 01:52:39;;;;;;;0.10;0.10;;;;;;;;;;5039197;28;20057;-81
2024/01/14 01:55:06;;;;;;;0.43;0.43;;;;;;;;;;5048795;28;20112;-81
2024/01/14 01:57:33;;;;;;;0.57;0.57;;;;;;;;;;5048458;28;20055;-80
2024/01/14 02:00:00;;;;;;;0.30;0.30;;;;;;;;;;5035311;28;20054;-81
2024/01/14 02:02:27;;;;;;;0.10;0.10;;;;;;;;;;5035521;28;20123;-81
2024/01/14 02:04:53;;;;;;;0.10;0.10;;;;;;;;;;5048454;28;20099;-81
2024/01/14 02:07:20;;;;;;;0.10;0.10;;;;;;;;;;5053220;28;20049;-81
2024/01/14 02:09:47;;;;;;;0.20;0.20;;;;;;;;;;5030431;28;20140;-81
2024/01/14 02:12:13;;;;;;;0.10;0.10;;;;;;;;;;5027417;28;20060;-81
2024/01/14 02:14:40;;;;;;;0.95;0.95;;;;;;;;;;5047364;28;20053;-81
2024/01/14 02:17:06;;;;;;;2.10;1.95;;;;;;;;;;5051907;28;20141;-81
2024/01/14 02:19:33;;;;;;;0.47;0.47;;;;;;;;;;5057582;28;20056;-81
2024/01/14 02:22:14;;;;;;;0.80;0.80;;;;;;;;;;5052974;28;20080;-80
2024/01/14 02:24:40;;;;;;;0.10;0.10;;;;;;;;;;5035893;28;20061;-80
2024/01/14 02:27:07;;;;;;;0.10;0.10;;;;;;;;;;5035910;28;20088;-81
2024/01/14 02:29:35;;;;;;;0.10;0.10;;;;;;;;;;5052338;28;20751;-81
2024/01/14 02:32:02;;;;;;;0.30;0.30;;;;;;;;;;5039397;28;20049;-81
2024/01/14 02:34:28;;;;;;;0.10;0.10;;;;;;;;;;5027478;28;20048;-81
2024/01/14 02:36:55;;;;;;;0.10;0.10;;;;;;;;;;5023064;28;20850;-80
2024/01/14 02:39:21;;;;;;;0.10;0.10;;;;;;;;;;5036016;28;21501;-81
2024/01/14 02:41:48;;;;;;;0.10;0.10;;;;;;;;;;5055067;28;20061;-81
2024/01/14 02:44:15;;;;;;;0.35;0.35;;;;;;;;;;5053450;28;20069;-81
2024/01/14 02:46:41;;;;;;;0.77;0.77;;;;;;;;;;5037412;28;21337;-81
2024/01/14 02:49:08;;;;;;;0.20;0.20;;;;;;;;;;5048760;28;20045;-81
2024/01/14 02:51:34;;;;;;;0.10;0.10;;;;;;;;;;5054020;28;20166;-81
2024/01/14 02:54:02;;;;;;;0.80;0.68;;;;;;;;;;5037418;28;20062;-80
2024/01/14 02:56:29;;;;;;;0.10;0.10;;;;;;;;;;5038826;28;20055;-81
2024/01/14 02:58:56;;;;;;;0.10;0.10;;;;;;;;;;5038212;28;21584;-81
2024/01/14 03:01:22;;;;;;;0.35;0.35;;;;;;;;;;5038229;28;20116;-81
2024/01/14 03:03:49;;;;;;;0.20;0.20;;;;;;;;;;5034282;28;20065;-81
2024/01/14 03:06:16;;;;;;;0.10;0.10;;;;;;;;;;5026992;28;20943;-81
2024/01/14 03:08:43;;;;;;;0.22;0.22;;;;;;;;;;5034545;28;20135;-81
2024/01/14 03:11:09;;;;;;;0.10;0.10;;;;;;;;;;5034792;28;20534;-81
2024/01/14 03:13:36;;;;;;;0.10;0.10;;;;;;;;;;5034286;28;20057;-81
2024/01/14 03:16:02;;;;;;;0.15;0.15;;;;;;;;;;5035873;28;20045;-81
2024/01/14 03:18:29;;;;;;;0.10;0.10;;;;;;;;;;5042120;28;20054;-81
2024/01/14 03:20:55;;;;;;;0.10;0.10;;;;;;;;;;5045006;28;20916;-81
2024/01/14 03:23:22;;;;;;;0.10;0.10;;;;;;;;;;5036652;28;20113;-81
2024/01/14 03:25:50;;;;;;;0.10;0.10;;;;;;;;;;5034896;28;20057;-81
2024/01/14 03:28:16;;;;;;;0.35;0.35;;;;;;;;;;5026740;28;20066;-81
2024/01/14 03:30:44;;;;;;;0.10;0.10;;;;;;;;;;5043165;28;20128;-81
2024/01/14 03:33:10;;;;;;;0.10;0.10;;;;;;;;;;5032210;28;20088;-81
2024/01/14 03:35:37;;;;;;;0.10;0.10;;;;;;;;;;5048483;28;20068;-81
2024/01/14 03:38:04;;;;;;;0.25;0.25;;;;;;;;;;5026625;28;20108;-81
2024/01/14 03:40:30;;;;;;;0.10;0.10;;;;;;;;;;5044327;28;20057;-81
2024/01/14 03:42:56;;;;;;;0.15;0.15;;;;;;;;;;5033935;28;20092;-81
2024/01/14 03:45:23;;;;;;;0.20;0.20;;;;;;;;;;5046135;28;20050;-81
2024/01/14 03:47:49;;;;;;;0.10;0.10;;;;;;;;;;5023808;28;20058;-81
2024/01/14 03:50:16;;;;;;;0.60;0.60;;;;;;;;;;5038892;28;20038;-81
2024/01/14 03:52:42;;;;;;;0.20;0.20;;;;;;;;;;5029741;28;20181;-81
2024/01/14 03:55:09;;;;;;;0.10;0.10;;;;;;;;;;5031313;28;20113;-81
2024/01/14 03:57:35;;;;;;;0.10;0.10;;;;;;;;;;5038045;28;20053;-81
2024/01/14 04:00:03;;;;;;;0.10;0.10;;;;;;;;;;5036772;28;20059;-81
2024/01/14 04:02:29;;;;;;;0.20;0.20;;;;;;;;;;5051869;28;20044;-81
2024/01/14 04:04:55;;;;;;;0.13;0.13;;;;;;;;;;5053335;28;20184;-81
2024/01/14 04:07:22;;;;;;;0.15;0.15;;;;;;;;;;5052267;28;20060;-81
2024/01/14 04:09:49;;;;;;;0.10;0.10;;;;;;;;;;5054838;28;20104;-81
2024/01/14 04:12:15;;;;;;;0.15;0.15;;;;;;;;;;5029079;28;20070;-81
2024/01/14 04:14:43;;;;;;;0.10;0.10;;;;;;;;;;5026637;28;20053;-81
2024/01/14 04:17:10;;;;;;;0.20;0.20;;;;;;;;;;5046833;28;20046;-81
2024/01/14 04:19:37;;;;;;;0.10;0.10;;;;;;;;;;5054127;28;20045;-81
2024/01/14 04:22:04;;;;;;;0.10;0.10;;;;;;;;;;5031086;28;20478;-81
2024/01/14 04:24:30;;;;;;;0.30;0.30;;;;;;;;;;5039358;28;20062;-80
2024/01/14 04:26:57;;;;;;;0.10;0.10;;;;;;;;;;5039256;28;20054;-80
2024/01/14 04:29:23;;;;;;;0.20;0.20;;;;;;;;;;5034413;28;20038;-80
2024/01/14 04:31:49;;;;;;;0.10;0.10;;;;;;;;;;5016622;28;20658;-81
2024/01/14 04:34:16;;;;;;;0.32;0.32;;;;;;;;;;5046603;28;20739;-81
2024/01/14 04:36:42;;;;;;;0.10;0.10;;;;;;;;;;5032712;28;20061;-81
2024/01/14 04:39:10;;;;;;;0.20;0.20;;;;;;;;;;5049533;28;20084;-81
2024/01/14 04:41:40;;;;;;;0.45;0.45;;;;;;;;;;5034497;28;20037;-81
2024/01/14 04:44:06;;;;;;;0.32;0.32;;;;;;;;;;5033534;28;20101;-81
2024/01/14 04:46:33;;;;;;;0.30;0.30;;;;;;;;;;5033895;28;20049;-80
2024/01/14 04:48:59;;;;;;;0.28;0.28;;;;;;;;;;5035319;28;20104;-80
2024/01/14 04:51:26;;;;;;;0.20;0.20;;;;;;;;;;5050484;28;20149;-81
2024/01/14 04:53:53;;;;;;;0.32;0.32;;;;;;;;;;5037710;28;20123;-80
2024/01/14 04:56:19;;;;;;;1.65;1.55;;;;;;;;;;5037339;28;20045;-81
2024/01/14 04:58:46;;;;;;;0.10;0.10;;;;;;;;;;5036758;28;20095;-80
2024/01/14 05:01:12;;;;;;;0.90;0.90;;;;;;;;;;5054227;28;20073;-81
2024/01/14 05:03:39;;;;;;;1.10;1.02;;;;;;;;;;5055080;28;20129;-80
2024/01/14 05:06:05;;;;;;;0.10;0.10;;;;;;;;;;5026209;28;20092;-81
2024/01/14 05:08:32;;;;;;;0.10;0.10;;;;;;;;;;5033191;28;20587;-81
2024/01/14 05:10:58;;;;;;;0.10;0.10;;;;;;;;;;5038097;28;20108;-80
2024/01/14 05:13:25;;;;;;;0.20;0.20;;;;;;;;;;5035042;28;20103;-81
2024/01/14 05:15:51;;;;;;;0.10;0.10;;;;;;;;;;5056437;28;20164;-80
2024/01/14 05:18:18;;;;;;;0.65;0.65;;;;;;;;;;5056483;28;20107;-80
2024/01/14 05:20:44;;;;;;;0.10;0.10;;;;;;;;;;5055687;28;20060;-80
2024/01/14 05:23:10;;;;;;;0.10;0.10;;;;;;;;;;5039806;28;20111;-80
2024/01/14 05:25:37;;;;;;;0.20;0.20;;;;;;;;;;5056138;28;21135;-81
2024/01/14 05:28:03;;;;;;;0.50;0.50;;;;;;;;;;5049642;28;20109;-81
2024/01/14 05:30:30;;;;;;;0.10;0.10;;;;;;;;;;5039408;28;20904;-80
2024/01/14 05:32:56;;;;;;;2.65;0.52;;;;;;;;;;5056669;28;20053;-81
2024/01/14 05:35:23;;;;;;;0.10;0.10;;;;;;;;;;5037230;28;20033;-80
2024/01/14 05:37:49;;;;;;;0.10;0.10;;;;;;;;;;5123422;23;20154;-76
2024/01/14 05:40:16;;;;;;;0.10;0.10;;;;;;;;;;5069200;28;21227;-76
2024/01/14 05:42:43;;;;;;;0.10;0.10;;;;;;;;;;5056565;28;20053;-75
2024/01/14 05:45:10;;;;;;;0.35;0.35;;;;;;;;;;5058769;28;20084;-76
2024/01/14 05:47:37;;;;;;;0.10;0.10;;;;;;;;;;5061432;28;20053;-76
2024/01/14 05:50:04;;;;;;;0.10;0.10;;;;;;;;;;5052122;28;20068;-76
2024/01/14 05:52:30;;;;;;;0.10;0.10;;;;;;;;;;5053513;28;20507;-77
2024/01/14 05:54:57;;;;;;;0.10;0.10;;;;;;;;;;5052130;28;20061;-76
2024/01/14 05:57:23;;;;;;;0.30;0.30;;;;;;;;;;5055586;28;20057;-76
2024/01/14 05:59:50;;;;;;;0.32;0.32;;;;;;;;;;5049066;28;20574;-76
2024/01/14 06:02:17;;;;;;;0.47;0.45;;;;;;;;;;5055636;28;20056;-76
2024/01/14 06:04:43;;;;;;;0.85;0.85;;;;;;;;;;5058469;28;20064;-76
2024/01/14 06:07:09;;;;;;;0.75;0.75;;;;;;;;;;5048231;28;20535;-76
2024/01/14 06:09:36;;;;;;;0.30;0.30;;;;;;;;;;5048996;28;20063;-76
2024/01/14 06:12:03;;;;;;;1.23;1.23;;;;;;;;;;5049244;28;20100;-76
2024/01/14 06:14:30;;;;;;;0.10;0.10;;;;;;;;;;5049732;28;20029;-76
2024/01/14 06:16:56;;;;;;;0.10;0.10;;;;;;;;;;5054601;28;20057;-76
2024/01/14 06:19:23;;;;;;;0.10;0.10;;;;;;;;;;5055525;28;20056;-76
2024/01/14 06:21:49;;;;;;;0.20;0.20;;;;;;;;;;5049148;28;20054;-76
2024/01/14 06:24:16;;;;;;;0.10;0.10;;;;;;;;;;5050565;28;20080;-77
2024/01/14 06:26:42;;;;;;;0.17;0.17;;;;;;;;;;5049762;28;20136;-77
2024/01/14 06:29:09;;;;;;;0.20;0.20;;;;;;;;;;5049940;28;20045;-77
2024/01/14 06:31:35;;;;;;;0.13;0.13;;;;;;;;;;5058568;28;20056;-75
2024/01/14 06:34:02;;;;;;;0.10;0.10;;;;;;;;;;5057769;28;20148;-76
2024/01/14 06:36:28;;;;;;;0.55;0.55;;;;;;;;;;5048369;28;20052;-76
2024/01/14 06:38:55;;;;;;;0.20;0.20;;;;;;;;;;5047824;28;20103;-77
2024/01/14 06:41:25;;;;;;;0.10;0.10;;;;;;;;;;5053623;28;20049;-76
2024/01/14 06:43:51;;;;;;;0.10;0.10;;;;;;;;;;5049802;28;20148;-76
2024/01/14 06:46:18;;;;;;;0.10;0.10;;;;;;;;;;5049108;28;20072;-76
2024/01/14 06:48:44;;;;;;;0.20;0.20;;;;;;;;;;5047979;28;20532;-77
2024/01/14 06:51:11;;;;;;;0.10;0.10;;;;;;;;;;5048394;28;20513;-76
2024/01/14 06:53:37;;;;;;;1.70;1.15;;;;;;;;;;5049387;28;20054;-76
2024/01/14 06:56:04;;;;;;;0.13;0.13;;;;;;;;;;5056458;28;20064;-76
2024/01/14 06:58:30;;;;;;;1.13;1.13;;;;;;;;;;5050806;28;20534;-76
2024/01/14 07:00:57;;;;;;;0.10;0.10;;;;;;;;;;5046417;28;20555;-76
2024/01/14 07:03:23;;;;;;;0.10;0.10;;;;;;;;;;5053039;28;20064;-76
2024/01/14 07:05:50;;;;;;;0.10;0.10;;;;;;;;;;5053444;28;20057;-75
2024/01/14 07:08:16;;;;;;;0.90;0.90;;;;;;;;;;5053056;28;20057;-76
2024/01/14 07:10:43;;;;;;;0.20;0.20;;;;;;;;;;5061995;28;20053;-76
2024/01/14 07:13:09;;;;;;;0.30;0.30;;;;;;;;;;5068293;28;20092;-77
2024/01/14 07:15:36;;;;;;;0.10;0.10;;;;;;;;;;5059240;28;20547;-76
2024/01/14 07:18:04;;;;;;;0.10;0.10;;;;;;;;;;5063943;28;20080;-76
2024/01/14 07:20:31;;;;;;;0.10;0.10;;;;;;;;;;5062509;28;20080;-76
2024/01/14 07:22:58;;;;;;;0.25;0.25;;;;;;;;;;5065200;28;20065;-76
2024/01/14 07:25:44;;;;;;;0.77;0.65;;;;;;;;;;5058137;28;20100;-76
2024/01/14 07:28:10;;;;;;;1.05;1.00;;;;;;;;;;5066295;28;20463;-77
2024/01/14 07:30:37;;;;;;;0.10;0.10;;;;;;;;;;5060704;28;20145;-76
2024/01/14 07:33:03;;;;;;;0.32;0.32;;;;;;;;;;5066528;28;20039;-80
2024/01/14 07:35:30;;;;;;;0.20;0.20;;;;;;;;;;5064857;28;20571;-80
2024/01/14 07:37:56;;;;;;;0.10;0.10;;;;;;;;;;5065452;28;20060;-80
2024/01/14 07:40:23;;;;;;;0.10;0.10;;;;;;;;;;5066088;28;20103;-80
2024/01/14 07:42:49;;;;;;;0.30;0.30;;;;;;;;;;5065866;28;20053;-80
2024/01/14 07:45:15;;;;;;;0.10;0.10;;;;;;;;;;5068686;28;20061;-80
2024/01/14 07:47:42;;;;;;;0.10;0.10;;;;;;;;;;5054655;28;20098;-80
2024/01/14 07:50:09;;;;;;;0.55;0.55;;;;;;;;;;5066879;28;20057;-80
2024/01/14 07:52:37;;;;;;;0.20;0.20;;;;;;;;;;5061020;28;20080;-80
2024/01/14 07:55:04;;;;;;;0.17;0.17;;;;;;;;;;5055944;28;20120;-80
2024/01/14 07:57:30;;;;;;;0.30;0.30;;;;;;;;;;5062997;28;20064;-80
2024/01/14 07:59:57;;;;;;;0.20;0.20;;;;;;;;;;5064720;28;20068;-80
2024/01/14 08:02:23;;;;;;;0.10;0.10;;;;;;;;;;5055970;28;20080;-80
2024/01/14 08:04:50;;;;;;;0.43;0.43;;;;;;;;;;5051770;28;20049;-80
2024/01/14 08:07:16;;;;;;;0.10;0.10;;;;;;;;;;5059440;28;21560;-80
2024/01/14 08:09:43;;;;;;;1.30;1.30;;;;;;;;;;5049435;28;20061;-80
2024/01/14 08:12:09;;;;;;;0.10;0.10;;;;;;;;;;5065103;28;20068;-80
2024/01/14 08:14:35;;;;;;;0.10;0.10;;;;;;;;;;5058601;28;20037;-80
2024/01/14 08:17:02;;;;;;;1.98;1.88;;;;;;;;;;5051984;28;20053;-80
2024/01/14 08:19:28;;;;;;;0.10;0.10;;;;;;;;;;5056644;28;20045;-80
2024/01/14 08:21:54;;;;;;;4.03;3.72;;;;;;;;;;5053039;28;20060;-80
2024/01/14 08:24:21;;;;;;;0.32;0.32;;;;;;;;;;5058379;28;20103;-81
2024/01/14 08:26:47;;;;;;;0.10;0.10;;;;;;;;;;5063419;28;20053;-81
2024/01/14 08:29:14;;;;;;;0.10;0.10;;;;;;;;;;5051197;28;20893;-80
2024/01/14 08:31:51;;;;;;;0.30;0.30;;;;;;;;;;5054179;28;20460;-81
2024/01/14 08:34:18;;;;;;;2.05;1.73;;;;;;;;;;5067807;28;20096;-81
2024/01/14 08:36:46;;;;;;;14.18;4.47;;;;;;;;;;5058425;28;20057;-81
2024/01/14 08:39:13;;;;;;;0.20;0.20;;;;;;;;;;5062430;28;20949;-81
2024/01/14 08:41:40;;;;;;;0.30;0.30;;;;;;;;;;5059398;28;20056;-81
2024/01/14 08:44:09;;;;;;;0.10;0.10;;;;;;;;;;5056874;28;20512;-81
2024/01/14 08:46:39;;;;;;;0.10;0.10;;;;;;;;;;5050325;28;20057;-81
2024/01/14 08:49:05;;;;;;;0.20;0.20;;;;;;;;;;5053693;28;20068;-81
2024/01/14 08:51:32;;;;;;;0.20;0.20;;;;;;;;;;5049864;28;20565;-81
2024/01/14 08:54:00;;;;;;;0.10;0.10;;;;;;;;;;5050162;28;20589;-81
2024/01/14 08:56:30;;;;;;;0.10;0.10;;;;;;;;;;5063410;28;20053;-81
2024/01/14 08:58:57;;;;;;;3.15;2.95;;;;;;;;;;5065597;28;20107;-81
2024/01/14 09:01:24;;;;;;;0.10;0.10;;;;;;;;;;5052811;28;20084;-81
2024/01/14 09:03:50;;;;;;;0.10;0.10;;;;;;;;;;5061869;28;20104;-81
2024/01/14 09:06:17;;;;;;;0.57;0.57;;;;;;;;;;5058492;28;20037;-81
2024/01/14 09:08:43;;;;;;;0.10;0.10;;;;;;;;;;5069045;28;20496;-80
2024/01/14 09:11:10;;;;;;;0.10;0.10;;;;;;;;;;5055432;28;20109;-81
2024/01/14 09:13:36;;;;;;;2.83;2.60;;;;;;;;;;5063653;28;20467;-81
2024/01/14 09:16:03;;;;;;;0.10;0.10;;;;;;;;;;5056398;28;20045;-80
2024/01/14 09:18:29;;;;;;;0.10;0.10;;;;;;;;;;5070194;28;20974;-80
2024/01/14 09:20:56;;;;;;;0.35;0.35;;;;;;;;;;5061552;28;20073;-81
2024/01/14 09:23:22;;;;;;;0.10;0.10;;;;;;;;;;5070133;28;20053;-81
2024/01/14 09:25:49;;;;;;;1.02;1.00;;;;;;;;;;5060154;28;20143;-81
2024/01/14 09:28:15;;;;;;;0.17;0.17;;;;;;;;;;5059463;28;20049;-80
2024/01/14 09:30:42;;;;;;;0.10;0.10;;;;;;;;;;5060771;28;20056;-81
2024/01/14 09:33:08;;;;;;;0.80;0.80;;;;;;;;;;5064389;28;20060;-81
2024/01/14 09:35:35;;;;;;;0.10;0.10;;;;;;;;;;5055762;28;20060;-80
2024/01/14 09:38:01;;;;;;;0.10;0.10;;;;;;;;;;5068962;28;20061;-80
2024/01/14 09:40:28;;;;;;;0.45;0.45;;;;;;;;;;5068305;28;20470;-80
2024/01/14 09:42:57;;;;;;;1.13;1.13;;;;;;;;;;5070001;28;20664;-80
2024/01/14 09:45:24;;;;;;;0.10;0.10;;;;;;;;;;5053030;28;20130;-80
2024/01/14 09:47:57;;;;;;;0.15;0.15;;;;;;;;;;5064232;28;20240;-80
2024/01/14 09:50:23;;;;;;;0.65;0.65;;;;;;;;;;5058695;28;20569;-80
2024/01/14 09:52:52;;;;;;;0.10;0.10;;;;;;;;;;5051233;28;20165;-80
2024/01/14 09:55:19;;;;;;;0.17;0.17;;;;;;;;;;5063518;28;20057;-80
2024/01/14 09:57:47;;;;;;;0.10;0.10;;;;;;;;;;5053750;28;20503;-80
2024/01/14 10:00:14;;;;;;;0.10;0.10;;;;;;;;;;5057102;28;20049;-80
2024/01/14 10:02:41;;;;;;;0.10;0.10;;;;;;;;;;5055360;28;20586;-80
2024/01/14 10:05:08;;;;;;;0.10;0.10;;;;;;;;;;5066036;28;20057;-80
2024/01/14 10:07:35;;;;;;;0.20;0.20;;;;;;;;;;5060082;28;20397;-80
2024/01/14 10:10:06;;;;;;;1.95;1.17;;;;;;;;;;5062984;28;20056;-80
2024/01/14 10:12:33;;;;;;;1.85;1.60;;;;;;;;;;5063915;28;20060;-80
2024/01/14 10:14:59;;;;;;;0.25;0.25;;;;;;;;;;5053212;28;20515;-80
2024/01/14 10:17:29;;;;;;;0.10;0.10;;;;;;;;;;5049161;28;20231;-81
2024/01/14 10:19:59;;;;;;;3.90;3.53;;;;;;;;;;5054836;28;20050;-80
2024/01/14 10:22:26;;;;;;;1.13;1.13;;;;;;;;;;5056957;28;20144;-81
2024/01/14 10:24:54;;;;;;;0.10;0.10;;;;;;;;;;5056929;28;20053;-80
2024/01/14 10:27:21;;;;;;;0.22;0.22;;;;;;;;;;5058964;28;20045;-80
2024/01/14 10:30:03;;;;;;;0.17;0.17;;;;;;;;;;5058308;28;20057;-80
2024/01/14 10:32:31;;;;;;;0.10;0.10;;;;;;;;;;5066105;28;20048;-80
2024/01/14 10:35:17;;;;;;;0.10;0.10;;;;;;;;;;5059046;28;20061;-80
2024/01/14 10:37:45;;;;;;;0.10;0.10;;;;;;;;;;5061316;28;20052;-81
2024/01/14 10:40:12;;;;;;;3.60;2.10;;;;;;;;;;5058480;28;20103;-81
2024/01/14 10:42:38;;;;;;;0.20;0.20;;;;;;;;;;5061476;28;20941;-81
2024/01/14 10:45:05;;;;;;;0.77;0.77;;;;;;;;;;5055786;28;20071;-81
2024/01/14 10:47:36;;;;;;;0.10;0.10;;;;;;;;;;5059439;28;20108;-81
2024/01/14 10:50:03;;;;;;;0.77;0.77;;;;;;;;;;5048791;28;20496;-81
2024/01/14 10:52:33;;;;;;;0.10;0.10;;;;;;;;;;5053454;28;20140;-81
2024/01/14 10:55:06;;;;;;;0.10;0.10;;;;;;;;;;5055206;28;20065;-81
2024/01/14 10:57:36;;;;;;;0.10;0.10;;;;;;;;;;5057263;28;20049;-81
2024/01/14 11:00:08;;;;;;;0.10;0.10;;;;;;;;;;5058566;28;20053;-81
2024/01/14 11:02:35;;;;;;;0.10;0.10;;;;;;;;;;5067972;28;20064;-81
2024/01/14 11:05:06;;;;;;;0.68;0.65;;;;;;;;;;5067496;28;20045;-81
2024/01/14 11:07:33;;;;;;;0.20;0.20;;;;;;;;;;5063473;28;20053;-81
2024/01/14 11:10:04;;;;;;;0.30;0.30;;;;;;;;;;5063528;28;20053;-81
2024/01/14 11:12:30;;;;;;;0.10;0.10;;;;;;;;;;5069958;28;20056;-80
2024/01/14 11:15:09;;;;;;;0.10;0.10;;;;;;;;;;5066044;28;20482;-81
2024/01/14 11:17:54;;;;;;;0.10;0.10;;;;;;;;;;5064264;28;20112;-81
2024/01/14 11:20:23;;;;;;;0.10;0.10;;;;;;;;;;5068107;28;20071;-81
2024/01/14 11:22:55;;;;;;;0.10;0.10;;;;;;;;;;5067301;28;20057;-80
2024/01/14 11:25:33;;;;;;;0.10;0.10;;;;;;;;;;5067665;28;20057;-80
2024/01/14 11:28:04;;;;;;;0.10;0.10;;;;;;;;;;5066979;28;20127;-83
2024/01/14 11:30:46;;;;;;;0.10;0.10;;;;;;;;;;5062007;28;20049;-81
2024/01/14 11:33:32;;;;;;;0.10;0.10;;;;;;;;;;5057028;28;20041;-82
2024/01/14 11:36:00;;;;;;;0.10;0.10;;;;;;;;;;5062435;28;20037;-82
2024/01/14 11:38:33;;;;;;;0.10;0.10;;;;;;;;;;5069081;28;20053;-80
2024/01/14 11:41:19;;;;;;;0.25;0.25;;;;;;;;;;5061686;28;20064;-80
2024/01/14 11:43:45;;;;;;;1.95;1.33;;;;;;;;;;5057006;28;20053;-80
2024/01/14 11:46:30;;;;;;;0.10;0.10;;;;;;;;;;5063152;28;20057;-80
2024/01/14 11:48:57;;;;;;;0.20;0.20;;;;;;;;;;5068127;28;20854;-80
2024/01/14 11:51:39;;;;;;;0.10;0.10;;;;;;;;;;5069394;28;20056;-80
2024/01/14 11:54:09;;;;;;;0.17;0.17;;;;;;;;;;5061370;28;20060;-80
2024/01/14 11:56:36;;;;;;;10.80;2.83;;;;;;;;;;5058305;28;20083;-80
2024/01/14 11:59:06;;;;;;;0.10;0.10;;;;;;;;;;5065639;28;20049;-80
2024/01/14 12:01:32;;;;;;;0.10;0.10;;;;;;;;;;5058281;28;20057;-80
2024/01/14 12:04:08;;;;;;;0.10;0.10;;;;;;;;;;5067635;28;20426;-80
2024/01/14 12:06:41;;;;;;;0.40;0.40;;;;;;;;;;5067689;28;20052;-81
2024/01/14 12:09:08;;;;;;;0.10;0.10;;;;;;;;;;5070278;28;20049;-81
2024/01/14 12:11:35;;;;;;;0.10;0.10;;;;;;;;;;5054319;28;20180;-81
2024/01/14 12:14:02;;;;;;;1.40;0.63;;;;;;;;;;5066000;28;20149;-81
2024/01/14 12:16:32;;;;;;;0.10;0.10;;;;;;;;;;5053811;28;20049;-81
2024/01/14 12:18:58;;;;;;;0.80;0.80;;;;;;;;;;5070952;28;20076;-82
2024/01/14 12:21:26;;;;;;;0.20;0.20;;;;;;;;;;5069283;28;20103;-79
2024/01/14 12:23:58;;;;;;;0.85;0.85;;;;;;;;;;5063267;28;20503;-81
2024/01/14 12:26:25;;;;;;;0.68;0.68;;;;;;;;;;5061467;28;20057;-80
2024/01/14 12:28:51;;;;;;;0.10;0.10;;;;;;;;;;5063454;28;20183;-81
2024/01/14 12:31:19;;;;;;;0.10;0.10;;;;;;;;;;5070512;28;20054;-81
2024/01/14 12:33:52;;;;;;;0.10;0.10;;;;;;;;;;5069758;28;20127;-82
2024/01/14 12:36:18;;;;;;;0.10;0.10;;;;;;;;;;5070400;28;20133;-82
2024/01/14 12:38:45;;;;;;;0.10;0.10;;;;;;;;;;5070029;28;20669;-81
2024/01/14 12:41:14;;;;;;;0.20;0.20;;;;;;;;;;5066091;28;20049;-79
2024/01/14 12:43:41;;;;;;;0.85;0.85;;;;;;;;;;5062301;28;20067;-80
2024/01/14 12:46:07;;;;;;;0.10;0.10;;;;;;;;;;5054718;28;20049;-82
2024/01/14 12:48:34;;;;;;;0.10;0.10;;;;;;;;;;5060617;28;20525;-82
2024/01/14 12:51:01;;;;;;;0.55;0.55;;;;;;;;;;5068334;28;20049;-80
2024/01/14 12:53:29;;;;;;;0.20;0.20;;;;;;;;;;5069883;28;20064;-82
2024/01/14 12:56:09;;;;;;;0.10;0.10;;;;;;;;;;5063584;28;20056;-82
2024/01/14 12:58:37;;;;;;;0.10;0.10;;;;;;;;;;5063958;28;20091;-82
2024/01/14 13:01:04;;;;;;;0.17;0.17;;;;;;;;;;5065447;28;20053;-81
2024/01/14 13:03:31;;;;;;;0.10;0.10;;;;;;;;;;5069358;28;20175;-81
2024/01/14 13:05:57;;;;;;;0.10;0.10;;;;;;;;;;5070486;28;20068;-82
2024/01/14 13:08:24;;;;;;;1.30;1.20;;;;;;;;;;5068745;28;20048;-81
2024/01/14 13:10:50;;;;;;;0.10;0.10;;;;;;;;;;5065033;28;20061;-81
2024/01/14 13:13:17;;;;;;;0.10;0.10;;;;;;;;;;5069437;28;20529;-81
2024/01/14 13:15:43;;;;;;;0.10;0.10;;;;;;;;;;5068808;28;20072;-81
2024/01/14 13:18:10;;;;;;;1.60;1.50;;;;;;;;;;5066660;28;20132;-81
2024/01/14 13:20:37;;;;;;;0.10;0.10;;;;;;;;;;5063826;28;20065;-81
2024/01/14 13:23:03;;;;;;;0.50;0.50;;;;;;;;;;5069666;28;20598;-81
2024/01/14 13:25:30;;;;;;;0.10;0.10;;;;;;;;;;5067176;28;20049;-81
2024/01/14 13:27:56;;;;;;;0.28;0.28;;;;;;;;;;5070606;28;20048;-81
2024/01/14 13:30:23;;;;;;;0.22;0.22;;;;;;;;;;5071468;28;20064;-81
2024/01/14 13:32:50;;;;;;;0.38;0.38;;;;;;;;;;5068538;28;20512;-81
2024/01/14 13:35:17;;;;;;;0.63;0.63;;;;;;;;;;5054315;28;20160;-80
2024/01/14 13:37:44;;;;;;;0.43;0.43;;;;;;;;;;5052778;28;20053;-80
2024/01/14 13:40:11;;;;;;;0.10;0.10;;;;;;;;;;5060570;28;20049;-81
2024/01/14 13:42:37;;;;;;;0.10;0.10;;;;;;;;;;5055750;28;20111;-81
2024/01/14 13:45:09;;;;;;;1.05;0.95;;;;;;;;;;5057819;28;20054;-81
2024/01/14 13:47:36;;;;;;;0.30;0.30;;;;;;;;;;5054055;28;20711;-81
2024/01/14 13:50:02;;;;;;;0.20;0.20;;;;;;;;;;5057565;28;20097;-81
2024/01/14 13:52:30;;;;;;;0.65;0.65;;;;;;;;;;5052198;28;20112;-81
2024/01/14 13:54:56;;;;;;;0.20;0.20;;;;;;;;;;5052748;28;20693;-81
2024/01/14 13:57:23;;;;;;;0.10;0.10;;;;;;;;;;5052333;28;20057;-80
2024/01/14 13:59:49;;;;;;;0.20;0.20;;;;;;;;;;5064768;28;20057;-81
2024/01/14 14:02:18;;;;;;;0.70;0.70;;;;;;;;;;5061853;28;20048;-80
2024/01/14 14:04:45;;;;;;;0.43;0.43;;;;;;;;;;5059729;28;20110;-81
2024/01/14 14:07:12;;;;;;;0.10;0.10;;;;;;;;;;5054961;28;20083;-81
2024/01/14 14:09:39;;;;;;;0.10;0.10;;;;;;;;;;5068689;28;20057;-80
2024/01/14 14:12:07;;;;;;;1.05;1.00;;;;;;;;;;5071371;28;20706;-80
2024/01/14 14:14:34;;;;;;;0.10;0.10;;;;;;;;;;5070430;28;20029;-80
2024/01/14 14:17:00;;;;;;;0.43;0.43;;;;;;;;;;5073445;28;20041;-80
2024/01/14 14:19:27;;;;;;;0.10;0.10;;;;;;;;;;5071500;28;20056;-80
2024/01/14 14:21:55;;;;;;;0.10;0.10;;;;;;;;;;5071464;28;20048;-80
2024/01/14 14:24:27;;;;;;;0.10;0.10;;;;;;;;;;5072002;28;20051;-80
2024/01/14 14:26:54;;;;;;;0.10;0.10;;;;;;;;;;5072048;28;20423;-80
2024/01/14 14:29:20;;;;;;;0.20;0.20;;;;;;;;;;5072370;28;20131;-80
2024/01/14 14:31:51;;;;;;;0.10;0.10;;;;;;;;;;5062916;28;20057;-80
2024/01/14 14:34:17;;;;;;;0.20;0.20;;;;;;;;;;5058415;28;20136;-80
2024/01/14 14:36:46;;;;;;;1.00;1.00;;;;;;;;;;5065908;28;20052;-80
2024/01/14 14:39:13;;;;;;;0.10;0.10;;;;;;;;;;5066206;28;20059;-80
2024/01/14 14:41:39;;;;;;;0.10;0.10;;;;;;;;;;5069900;28;20057;-80
2024/01/14 14:44:07;;;;;;;0.10;0.10;;;;;;;;;;5065362;28;20060;-80